Time,TemperatureF,DewpointF,PressureIn,WindDirection,WindDirectionDegrees,WindSpeedMPH,WindSpeedGustMPH,Humidity,HourlyPrecipIn,Conditions,Clouds,dailyrainin,SoftwareType,DateUTC
2013-05-28 00:02:00,50.0,49.0,-100.00,SE,136,9.0,14.0,98,0.00,,,0.07,,2013-05-28 05:02:00,
2013-05-28 00:12:00,50.0,49.0,-100.00,SE,136,9.0,14.0,98,0.00,,,0.07,,2013-05-28 05:12:00,
2013-05-28 00:22:00,50.0,49.0,-100.00,SE,136,9.0,14.0,98,0.00,,,0.07,,2013-05-28 05:22:00,
2013-05-28 00:52:00,50.0,50.0,-100.00,SE,143,7.0,14.0,99,0.00,,,0.07,,2013-05-28 05:52:00,
2013-05-28 01:02:00,50.0,50.0,-100.00,SE,143,7.0,14.0,99,0.00,,,0.07,,2013-05-28 06:02:00,
2013-05-28 01:12:00,50.0,50.0,-100.00,SE,143,7.0,14.0,99,0.00,,,0.07,,2013-05-28 06:12:00,
2013-05-28 01:21:00,50.0,50.0,-100.00,SE,143,7.0,14.0,99,0.00,,,0.07,,2013-05-28 06:21:00,
2013-05-28 01:52:00,50.0,50.0,-100.00,ESE,110,4.0,11.0,99,0.00,,,0.07,,2013-05-28 06:52:00,
2013-05-28 02:01:00,50.0,50.0,-100.00,ESE,110,4.0,11.0,99,0.00,,,0.07,,2013-05-28 07:01:00,
2013-05-28 02:11:00,50.0,50.0,-100.00,ESE,110,4.0,11.0,99,0.00,,,0.07,,2013-05-28 07:11:00,
2013-05-28 02:21:00,50.0,50.0,-100.00,ESE,110,4.0,11.0,99,0.00,,,0.07,,2013-05-28 07:21:00,
2013-05-28 02:52:00,50.0,50.0,-100.00,ESE,102,4.0,10.0,99,0.00,,,0.07,,2013-05-28 07:52:00,
2013-05-28 03:02:00,50.0,50.0,-100.00,ESE,102,4.0,10.0,99,0.00,,,0.07,,2013-05-28 08:02:00,
2013-05-28 03:12:00,50.0,50.0,-100.00,ESE,102,4.0,10.0,99,0.00,,,0.07,,2013-05-28 08:12:00,
2013-05-28 03:22:00,50.0,50.0,-100.00,ESE,102,4.0,10.0,99,0.00,,,0.07,,2013-05-28 08:22:00,
2013-05-28 03:52:00,50.0,50.0,-100.00,SE,127,8.0,12.0,99,0.00,,,0.07,,2013-05-28 08:52:00,
2013-05-28 04:01:00,50.0,50.0,-100.00,SE,127,8.0,12.0,99,0.00,,,0.07,,2013-05-28 09:01:00,
2013-05-28 04:11:00,50.0,50.0,-100.00,SE,127,8.0,12.0,99,0.00,,,0.07,,2013-05-28 09:11:00,
2013-05-28 04:21:00,50.0,50.0,-100.00,SE,127,8.0,12.0,99,0.00,,,0.07,,2013-05-28 09:21:00,
2013-05-28 04:54:00,50.0,50.0,-100.00,ESE,114,4.0,11.0,99,0.00,,,0.07,,2013-05-28 09:54:00,
2013-05-28 05:03:00,50.0,50.0,-100.00,ESE,114,4.0,11.0,99,0.00,,,0.07,,2013-05-28 10:03:00,
2013-05-28 05:12:00,50.0,50.0,-100.00,ESE,114,4.0,11.0,99,0.00,,,0.07,,2013-05-28 10:12:00,
2013-05-28 05:23:00,50.0,50.0,-100.00,ESE,114,4.0,11.0,99,0.00,,,0.07,,2013-05-28 10:23:00,
2013-05-28 05:53:00,50.0,50.0,-100.00,ESE,115,5.0,9.0,99,0.01,,,0.08,,2013-05-28 10:53:00,
2013-05-28 06:02:00,50.0,50.0,-100.00,ESE,115,5.0,9.0,99,0.01,,,0.08,,2013-05-28 11:02:00,
2013-05-28 06:11:00,50.0,50.0,-100.00,ESE,115,5.0,9.0,99,0.01,,,0.08,,2013-05-28 11:11:00,
2013-05-28 06:22:00,50.0,50.0,-100.00,ESE,115,5.0,9.0,99,0.01,,,0.08,,2013-05-28 11:22:00,
2013-05-28 06:52:00,51.0,50.0,-100.00,SE,142,8.0,13.0,98,0.00,,,0.08,,2013-05-28 11:52:00,
2013-05-28 07:01:00,51.0,50.0,-100.00,SE,142,8.0,13.0,98,0.00,,,0.08,,2013-05-28 12:01:00,
2013-05-28 07:11:00,51.0,50.0,-100.00,SE,142,8.0,13.0,98,0.00,,,0.08,,2013-05-28 12:11:00,
2013-05-28 07:21:00,51.0,50.0,-100.00,SE,142,8.0,13.0,98,0.00,,,0.08,,2013-05-28 12:21:00,
2013-05-28 07:52:00,51.0,50.0,-100.00,South,178,4.0,12.0,98,0.17,,,0.25,,2013-05-28 12:52:00,
2013-05-28 08:01:00,51.0,50.0,-100.00,South,178,4.0,12.0,98,0.17,,,0.25,,2013-05-28 13:01:00,
2013-05-28 08:11:00,51.0,50.0,-100.00,South,178,4.0,12.0,98,0.17,,,0.25,,2013-05-28 13:11:00,
2013-05-28 08:21:00,51.0,50.0,-100.00,South,178,4.0,12.0,98,0.17,,,0.25,,2013-05-28 13:21:00,
2013-05-28 08:52:00,52.0,51.0,-100.00,East,91,13.0,20.0,97,0.20,,,0.43,,2013-05-28 13:52:00,
2013-05-28 09:02:00,52.0,51.0,-100.00,East,91,13.0,20.0,97,0.20,,,0.43,,2013-05-28 14:02:00,
2013-05-28 09:11:00,52.0,51.0,-100.00,East,91,13.0,20.0,97,0.20,,,0.43,,2013-05-28 14:11:00,
2013-05-28 09:21:00,52.0,51.0,-100.00,East,91,13.0,20.0,97,0.20,,,0.43,,2013-05-28 14:21:00,
2013-05-28 09:52:00,53.0,52.0,-100.00,SE,130,5.0,14.0,97,0.08,,,0.50,,2013-05-28 14:52:00,
2013-05-28 10:01:00,53.0,52.0,-100.00,SE,130,5.0,14.0,97,0.08,,,0.50,,2013-05-28 15:01:00,
2013-05-28 10:11:00,53.0,52.0,-100.00,SE,130,5.0,14.0,97,0.08,,,0.50,,2013-05-28 15:11:00,
2013-05-28 10:21:00,53.0,52.0,-100.00,SE,130,5.0,14.0,97,0.08,,,0.50,,2013-05-28 15:21:00,
2013-05-28 10:53:00,58.0,56.0,-100.00,ENE,71,6.0,14.0,94,0.02,,,0.52,,2013-05-28 15:53:00,
2013-05-28 11:03:00,58.0,56.0,-100.00,ENE,71,6.0,14.0,94,0.02,,,0.52,,2013-05-28 16:03:00,
2013-05-28 11:13:00,58.0,56.0,-100.00,ENE,71,6.0,14.0,94,0.02,,,0.52,,2013-05-28 16:13:00,
2013-05-28 11:22:00,58.0,56.0,-100.00,ENE,71,6.0,14.0,94,0.02,,,0.52,,2013-05-28 16:22:00,
2013-05-28 11:52:00,60.0,58.0,-100.00,SE,133,4.0,10.0,92,0.00,,,0.52,,2013-05-28 16:52:00,
2013-05-28 12:02:00,60.0,58.0,-100.00,SE,133,4.0,10.0,92,0.00,,,0.52,,2013-05-28 17:02:00,
2013-05-28 12:12:00,60.0,58.0,-100.00,SE,133,4.0,10.0,92,0.00,,,0.52,,2013-05-28 17:12:00,
2013-05-28 12:22:00,60.0,58.0,-100.00,SE,133,4.0,10.0,92,0.00,,,0.52,,2013-05-28 17:22:00,
2013-05-28 12:52:00,61.0,58.0,-100.00,West,270,1.0,7.0,91,0.00,,,0.52,,2013-05-28 17:52:00,
2013-05-28 13:01:00,61.0,58.0,-100.00,West,270,1.0,7.0,91,0.00,,,0.52,,2013-05-28 18:01:00,
2013-05-28 13:11:00,61.0,58.0,-100.00,West,270,1.0,7.0,91,0.00,,,0.52,,2013-05-28 18:11:00,
2013-05-28 13:21:00,61.0,58.0,-100.00,West,270,1.0,7.0,91,0.00,,,0.52,,2013-05-28 18:21:00,
2013-05-28 13:52:00,63.0,60.0,-100.00,South,176,3.0,4.0,91,0.00,,,0.52,,2013-05-28 18:52:00,
2013-05-28 14:01:00,63.0,60.0,-100.00,South,176,3.0,4.0,91,0.00,,,0.52,,2013-05-28 19:01:00,
2013-05-28 14:11:00,63.0,60.0,-100.00,South,176,3.0,4.0,91,0.00,,,0.52,,2013-05-28 19:11:00,
2013-05-28 14:21:00,63.0,60.0,-100.00,South,176,3.0,4.0,91,0.00,,,0.52,,2013-05-28 19:21:00,
2013-05-28 14:52:00,67.0,63.0,-100.00,WSW,237,2.0,6.0,86,0.00,,,0.52,,2013-05-28 19:52:00,
2013-05-28 15:01:00,67.0,63.0,-100.00,WSW,237,2.0,6.0,86,0.00,,,0.52,,2013-05-28 20:01:00,
2013-05-28 15:11:00,67.0,63.0,-100.00,WSW,237,2.0,6.0,86,0.00,,,0.52,,2013-05-28 20:11:00,
2013-05-28 15:22:00,67.0,63.0,-100.00,WSW,237,2.0,6.0,86,0.00,,,0.52,,2013-05-28 20:22:00,
2013-05-28 15:52:00,70.0,64.0,-100.00,NNW,335,5.0,7.0,81,0.00,,,0.52,,2013-05-28 20:52:00,
2013-05-28 16:02:00,70.0,64.0,-100.00,NNW,335,5.0,7.0,81,0.00,,,0.52,,2013-05-28 21:02:00,
2013-05-28 16:11:00,70.0,64.0,-100.00,NNW,335,5.0,7.0,81,0.00,,,0.52,,2013-05-28 21:11:00,
2013-05-28 16:21:00,70.0,64.0,-100.00,NNW,335,5.0,7.0,81,0.00,,,0.52,,2013-05-28 21:21:00,
2013-05-28 16:53:00,70.0,64.0,-100.00,NW,313,3.0,7.0,80,0.00,,,0.52,,2013-05-28 21:53:00,
2013-05-28 17:02:00,70.0,64.0,-100.00,NW,313,3.0,7.0,80,0.00,,,0.52,,2013-05-28 22:02:00,
2013-05-28 17:12:00,70.0,64.0,-100.00,NW,313,3.0,7.0,80,0.00,,,0.52,,2013-05-28 22:12:00,
2013-05-28 17:22:00,70.0,64.0,-100.00,NW,313,3.0,7.0,80,0.00,,,0.52,,2013-05-28 22:22:00,
2013-05-28 17:52:00,71.0,64.0,-100.00,North,353,2.0,4.0,79,0.00,,,0.52,,2013-05-28 22:52:00,
2013-05-28 18:02:00,71.0,64.0,-100.00,North,353,2.0,4.0,79,0.00,,,0.52,,2013-05-28 23:02:00,
2013-05-28 18:11:00,71.0,64.0,-100.00,North,353,2.0,4.0,79,0.00,,,0.52,,2013-05-28 23:11:00,
2013-05-28 18:22:00,71.0,64.0,-100.00,North,353,2.0,4.0,79,0.00,,,0.52,,2013-05-28 23:22:00,
2013-05-28 18:52:00,67.0,63.0,-100.00,NNE,32,6.0,9.0,88,0.00,,,0.52,,2013-05-28 23:52:00,
2013-05-28 19:02:00,67.0,63.0,-100.00,NNE,32,6.0,9.0,88,0.00,,,0.52,,2013-05-29 00:02:00,
2013-05-28 19:11:00,67.0,63.0,-100.00,NNE,32,6.0,9.0,88,0.00,,,0.52,,2013-05-29 00:11:00,
2013-05-28 19:21:00,67.0,63.0,-100.00,NNE,32,6.0,9.0,88,0.00,,,0.52,,2013-05-29 00:21:00,
2013-05-28 19:52:00,63.0,61.0,-100.00,NE,40,9.0,12.0,92,0.00,,,0.51,,2013-05-29 00:52:00,
2013-05-28 20:01:00,63.0,61.0,-100.00,NE,40,9.0,12.0,92,0.00,,,0.51,,2013-05-29 01:01:00,
2013-05-28 20:11:00,63.0,61.0,-100.00,NE,40,9.0,12.0,92,0.00,,,0.51,,2013-05-29 01:11:00,
2013-05-28 20:22:00,63.0,61.0,-100.00,NE,40,9.0,12.0,92,0.00,,,0.51,,2013-05-29 01:22:00,
2013-05-28 20:52:00,61.0,59.0,-100.00,NNE,15,6.0,12.0,93,0.00,,,0.48,,2013-05-29 01:52:00,
2013-05-28 21:02:00,61.0,59.0,-100.00,NNE,15,6.0,12.0,93,0.00,,,0.48,,2013-05-29 02:02:00,
2013-05-28 21:12:00,61.0,59.0,-100.00,NNE,15,6.0,12.0,93,0.00,,,0.48,,2013-05-29 02:12:00,
2013-05-28 21:21:00,61.0,59.0,-100.00,NNE,15,6.0,12.0,93,0.00,,,0.48,,2013-05-29 02:21:00,
2013-05-28 21:52:00,59.0,58.0,-100.00,SE,134,2.0,12.0,95,0.00,,,0.48,,2013-05-29 02:52:00,
2013-05-28 22:02:00,59.0,58.0,-100.00,SE,134,2.0,12.0,95,0.00,,,0.48,,2013-05-29 03:02:00,
2013-05-28 22:12:00,59.0,58.0,-100.00,SE,134,2.0,12.0,95,0.00,,,0.48,,2013-05-29 03:12:00,
2013-05-28 22:21:00,59.0,58.0,-100.00,SE,134,2.0,12.0,95,0.00,,,0.48,,2013-05-29 03:21:00,
2013-05-28 22:53:00,59.0,58.0,-100.00,ESE,104,2.0,9.0,97,0.00,,,0.48,,2013-05-29 03:53:00,
2013-05-28 23:02:00,59.0,58.0,-100.00,ESE,104,2.0,9.0,97,0.00,,,0.48,,2013-05-29 04:02:00,
2013-05-28 23:13:00,59.0,58.0,-100.00,ESE,104,2.0,9.0,97,0.00,,,0.48,,2013-05-29 04:13:00,
2013-05-28 23:23:00,59.0,58.0,-100.00,ESE,104,2.0,9.0,97,0.00,,,0.48,,2013-05-29 04:23:00,
2013-05-28 23:52:00,60.0,59.0,-100.00,SE,145,3.0,7.0,97,0.00,,,0.48,,2013-05-29 04:52:00,